createdAt,value
2018-08-05T00:00:51.358Z,23.51
2018-08-05T00:03:20.656Z,23.46
2018-08-05T00:05:49.957Z,23.45
2018-08-05T00:08:19.261Z,23.43
2018-08-05T00:10:48.564Z,23.53
2018-08-05T00:13:17.942Z,23.58
2018-08-05T00:15:47.301Z,23.70
2018-08-05T00:18:16.590Z,23.69
2018-08-05T00:20:45.890Z,23.60
2018-08-05T00:23:15.171Z,23.42
2018-08-05T00:25:44.446Z,23.45
2018-08-05T00:28:13.598Z,23.42
2018-08-05T00:30:42.854Z,23.18
2018-08-05T00:33:12.384Z,23.11
2018-08-05T00:35:42.036Z,23.09
2018-08-05T00:38:11.297Z,23.28
2018-08-05T00:40:40.651Z,23.23
2018-08-05T00:43:10.015Z,22.91
2018-08-05T00:45:39.300Z,23.07
2018-08-05T00:48:08.763Z,22.99
2018-08-05T00:50:38.042Z,22.87
2018-08-05T00:53:07.318Z,23.00
2018-08-05T00:55:36.595Z,23.08
2018-08-05T00:58:06.369Z,23.18
2018-08-05T01:00:35.680Z,23.18
2018-08-05T01:03:04.968Z,23.07
2018-08-05T01:05:34.303Z,23.30
2018-08-05T01:08:03.854Z,23.47
2018-08-05T01:10:33.160Z,23.22
2018-08-05T01:13:02.454Z,23.29
2018-08-05T01:15:31.789Z,23.31
2018-08-05T01:18:01.019Z,23.43
2018-08-05T01:20:30.828Z,23.15
2018-08-05T01:23:00.106Z,23.23
2018-08-05T01:25:29.133Z,22.89
2018-08-05T01:27:58.458Z,22.80
2018-08-05T01:30:27.711Z,22.81
2018-08-05T01:32:56.969Z,22.82
2018-08-05T01:35:26.264Z,22.85
2018-08-05T01:37:55.569Z,22.58
2018-08-05T01:40:24.830Z,22.54
2018-08-05T01:42:54.473Z,22.45
2018-08-05T01:45:23.830Z,22.67
2018-08-05T01:47:53.103Z,22.61
2018-08-05T01:50:22.210Z,22.49
2018-08-05T01:52:51.536Z,22.52
2018-08-05T01:55:20.746Z,22.54
2018-08-05T01:57:50.066Z,22.59
2018-08-05T02:00:19.362Z,22.75
2018-08-05T02:02:48.662Z,22.69
2018-08-05T02:05:18.218Z,22.55
2018-08-05T02:07:47.542Z,22.43
2018-08-05T02:10:16.843Z,22.17
2018-08-05T02:12:45.909Z,22.06
2018-08-05T02:15:15.192Z,22.14
2018-08-05T02:17:44.460Z,22.34
2018-08-05T02:20:13.835Z,22.47
2018-08-05T02:22:43.080Z,22.54
2018-08-05T02:25:12.368Z,22.54
2018-08-05T02:27:42.388Z,22.56
2018-08-05T02:30:11.798Z,22.70
2018-08-05T02:32:41.078Z,22.62
2018-08-05T02:35:10.384Z,22.68
2018-08-05T02:37:39.875Z,22.75
2018-08-05T02:40:09.179Z,22.88
2018-08-05T02:42:38.481Z,22.75
2018-08-05T02:45:07.931Z,22.70
2018-08-05T02:47:37.192Z,22.66
2018-08-05T02:50:07.372Z,22.69
2018-08-05T02:52:36.624Z,22.34
2018-08-05T02:55:06.016Z,22.33
2018-08-05T02:57:35.285Z,22.44
2018-08-05T03:00:04.980Z,22.52
2018-08-05T03:02:34.256Z,22.63
2018-08-05T03:05:03.593Z,22.75
2018-08-05T03:07:32.843Z,22.78
2018-08-05T03:10:02.091Z,22.81
2018-08-05T03:12:31.514Z,23.02
2018-08-05T03:15:00.799Z,22.86
2018-08-05T03:17:30.266Z,22.89
2018-08-05T03:20:00.328Z,22.82
2018-08-05T03:22:29.606Z,22.94
2018-08-05T03:24:58.856Z,22.86
2018-08-05T03:27:28.172Z,22.93
2018-08-05T03:29:57.458Z,22.76
2018-08-05T03:32:26.970Z,22.66
2018-08-05T03:34:56.835Z,22.53
2018-08-05T03:37:26.088Z,22.51
2018-08-05T03:39:55.513Z,22.71
2018-08-05T03:42:24.809Z,22.60
2018-08-05T03:44:54.086Z,22.53
2018-08-05T03:47:23.358Z,22.60
2018-08-05T03:49:52.657Z,22.33
2018-08-05T03:52:21.962Z,22.36
2018-08-05T03:54:51.246Z,22.31
2018-08-05T03:57:21.012Z,22.51
2018-08-05T03:59:50.282Z,22.34
2018-08-05T04:02:19.519Z,22.33
2018-08-05T04:04:48.883Z,22.30
2018-08-05T04:07:18.181Z,22.22
2018-08-05T04:09:47.466Z,22.12
2018-08-05T04:12:16.753Z,22.02
2018-08-05T04:14:46.055Z,22.14
2018-08-05T04:17:15.363Z,22.03
2018-08-05T04:19:44.903Z,22.16
2018-08-05T04:22:14.170Z,22.23
2018-08-05T04:24:43.451Z,22.12
2018-08-05T04:27:12.974Z,22.13
2018-08-05T04:29:42.376Z,22.33
2018-08-05T04:32:11.719Z,22.49
2018-08-05T04:34:41.120Z,22.44
2018-08-05T04:37:10.422Z,22.57
2018-08-05T04:39:39.707Z,22.46
2018-08-05T04:42:09.314Z,21.90
2018-08-05T04:44:38.580Z,22.18
2018-08-05T04:47:08.153Z,22.49
2018-08-05T04:49:37.579Z,22.31
2018-08-05T04:52:06.886Z,22.25
2018-08-05T04:54:36.150Z,22.28
2018-08-05T04:57:05.535Z,22.46
2018-08-05T04:59:34.763Z,22.54
2018-08-05T05:02:04.026Z,22.29
2018-08-05T05:04:33.935Z,22.33
2018-08-05T05:07:03.193Z,22.04
2018-08-05T05:09:32.495Z,22.06
2018-08-05T05:12:01.827Z,22.50
2018-08-05T05:14:31.203Z,22.74
2018-08-05T05:17:00.447Z,22.50
2018-08-05T05:19:29.704Z,22.49
2018-08-05T05:21:58.970Z,22.19
2018-08-05T05:24:28.264Z,22.39
2018-08-05T05:26:57.809Z,22.51
2018-08-05T05:29:27.113Z,22.72
2018-08-05T05:31:56.471Z,22.59
2018-08-05T05:34:25.839Z,22.81
2018-08-05T05:36:55.527Z,23.08
2018-08-05T05:39:24.995Z,23.35
2018-08-05T05:41:54.315Z,23.24
2018-08-05T05:44:23.610Z,23.24
2018-08-05T05:46:52.908Z,23.23
2018-08-05T05:49:22.608Z,22.96
2018-08-05T05:51:51.887Z,23.15
2018-08-05T05:54:21.145Z,23.53
2018-08-05T05:56:50.537Z,23.79
2018-08-05T05:59:19.782Z,23.52
2018-08-05T06:01:49.091Z,23.57
2018-08-05T06:04:18.496Z,23.37
2018-08-05T06:06:47.770Z,23.73
2018-08-05T06:09:17.042Z,23.89
2018-08-05T06:11:46.722Z,23.93
2018-08-05T06:14:15.982Z,23.75
2018-08-05T06:16:45.234Z,23.42
2018-08-05T06:19:14.267Z,23.72
2018-08-05T06:21:43.622Z,23.91
2018-08-05T06:24:12.687Z,24.14
2018-08-05T06:26:42.275Z,24.30
2018-08-05T06:29:15.362Z,24.22
2018-08-05T06:31:45.133Z,23.94
2018-08-05T06:34:14.407Z,23.79
2018-08-05T06:36:43.703Z,24.12
2018-08-05T06:39:13.040Z,23.74
2018-08-05T06:41:42.324Z,23.33
2018-08-05T06:44:11.775Z,23.13
2018-08-05T06:46:41.065Z,23.30
2018-08-05T06:49:10.317Z,24.01
2018-08-05T06:51:39.561Z,24.56
2018-08-05T06:54:09.339Z,24.56
2018-08-05T06:56:38.799Z,24.63
2018-08-05T06:59:08.062Z,24.70
2018-08-05T07:01:37.371Z,24.60
2018-08-05T07:04:06.639Z,24.57
2018-08-05T07:06:35.895Z,24.72
2018-08-05T07:09:08.272Z,24.76
2018-08-05T07:11:37.587Z,24.86
2018-08-05T07:14:07.018Z,24.42
2018-08-05T07:16:36.996Z,24.74
2018-08-05T07:19:07.568Z,25.07
2018-08-05T07:21:36.825Z,24.89
2018-08-05T07:24:06.105Z,25.02
2018-08-05T07:26:35.363Z,25.30
2018-08-05T07:29:04.894Z,25.60
2018-08-05T07:31:34.226Z,25.44
2018-08-05T07:34:03.580Z,25.28
2018-08-05T07:36:32.833Z,25.57
2018-08-05T07:39:02.266Z,25.26
2018-08-05T07:41:31.523Z,25.34
2018-08-05T07:44:00.811Z,25.22
2018-08-05T07:46:30.126Z,25.25
2018-08-05T07:48:59.415Z,25.59
2018-08-05T07:51:28.686Z,25.77
2018-08-05T07:53:57.958Z,25.64
2018-08-05T07:56:27.295Z,25.84
2018-08-05T07:58:56.533Z,26.17
2018-08-05T08:01:26.241Z,26.18
2018-08-05T08:03:55.542Z,25.86
2018-08-05T08:06:24.845Z,25.61
2018-08-05T08:08:54.121Z,25.88
2018-08-05T08:11:23.445Z,26.38
2018-08-05T08:13:52.738Z,26.70
2018-08-05T08:16:22.046Z,26.76
2018-08-05T08:18:51.476Z,25.62
2018-08-05T08:21:20.784Z,25.46
2018-08-05T08:23:51.154Z,25.55
2018-08-05T08:26:20.416Z,26.01
2018-08-05T08:28:49.756Z,26.33
2018-08-05T08:31:19.156Z,26.47
2018-08-05T08:33:48.352Z,27.03
2018-08-05T08:36:17.636Z,27.15
2018-08-05T08:38:47.080Z,26.85
2018-08-05T08:41:16.358Z,26.89
2018-08-05T08:43:45.810Z,27.21
2018-08-05T08:46:15.561Z,27.26
2018-08-05T08:48:44.927Z,27.28
2018-08-05T08:51:14.441Z,27.41
2018-08-05T08:53:43.879Z,27.34
2018-08-05T08:56:13.172Z,26.86
2018-08-05T08:58:42.510Z,27.29
2018-08-05T09:01:11.861Z,27.24
2018-08-05T09:03:41.242Z,27.17
2018-08-05T09:06:10.577Z,27.34
2018-08-05T09:08:40.335Z,27.43
2018-08-05T09:11:09.978Z,27.34
2018-08-05T09:13:39.275Z,27.61
2018-08-05T09:16:08.701Z,27.09
2018-08-05T09:18:37.981Z,27.55
2018-08-05T09:21:07.512Z,27.97
2018-08-05T09:23:36.807Z,28.32
2018-08-05T09:26:06.139Z,27.81
2018-08-05T09:28:35.453Z,28.34
2018-08-05T09:31:04.941Z,28.37
2018-08-05T09:33:34.193Z,27.34
2018-08-05T09:36:03.611Z,27.18
2018-08-05T09:38:32.899Z,26.76
2018-08-05T09:41:02.268Z,27.55
2018-08-05T09:43:31.649Z,27.84
2018-08-05T09:46:00.758Z,28.18
2018-08-05T09:48:30.055Z,28.60
2018-08-05T09:50:59.607Z,28.58
2018-08-05T09:53:29.732Z,28.10
2018-08-05T09:55:59.043Z,28.13
2018-08-05T09:58:28.382Z,28.12
2018-08-05T10:00:57.635Z,28.39
2018-08-05T10:03:27.111Z,28.05
2018-08-05T10:05:56.492Z,28.09
2018-08-05T10:08:25.912Z,28.22
2018-08-05T10:10:55.371Z,27.69
2018-08-05T10:13:24.962Z,27.20
2018-08-05T10:15:54.629Z,28.20
2018-08-05T10:18:23.989Z,28.51
2018-08-05T10:20:53.310Z,28.54
2018-08-05T10:23:22.671Z,28.34
2018-08-05T10:25:52.025Z,27.92
2018-08-05T10:28:21.341Z,27.28
2018-08-05T10:30:50.677Z,27.45
2018-08-05T10:33:20.261Z,27.99
2018-08-05T10:35:49.519Z,28.39
2018-08-05T10:38:18.947Z,28.12
2018-08-05T10:40:48.223Z,27.99
2018-08-05T10:43:17.480Z,27.88
2018-08-05T10:45:47.666Z,27.70
2018-08-05T10:48:17.372Z,27.52
2018-08-05T10:50:46.651Z,27.70
2018-08-05T10:53:15.922Z,28.25
2018-08-05T10:55:45.763Z,29.12
2018-08-05T10:58:15.158Z,29.09
2018-08-05T11:00:44.829Z,29.63
2018-08-05T11:03:14.115Z,29.04
2018-08-05T11:05:43.386Z,28.56
2018-08-05T11:08:12.773Z,28.35
2018-08-05T11:10:42.092Z,29.35
2018-08-05T11:13:11.503Z,29.15
2018-08-05T11:15:40.750Z,29.03
2018-08-05T11:18:10.011Z,28.72
2018-08-05T11:20:39.506Z,29.48
2018-08-05T11:23:08.932Z,29.78
2018-08-05T11:25:38.221Z,29.64
2018-08-05T11:28:07.673Z,29.66
2018-08-05T11:30:36.978Z,28.78
2018-08-05T11:33:06.339Z,29.02
2018-08-05T11:35:35.632Z,29.65
2018-08-05T11:38:04.991Z,29.94
2018-08-05T11:40:34.338Z,30.08
2018-08-05T11:43:03.654Z,29.77
2018-08-05T11:45:33.596Z,29.96
2018-08-05T11:48:03.229Z,30.27
2018-08-05T11:50:32.614Z,30.05
2018-08-05T11:53:02.238Z,29.83
2018-08-05T11:55:31.544Z,29.13
2018-08-05T11:58:00.852Z,28.87
2018-08-05T12:00:30.158Z,28.95
2018-08-05T12:02:59.442Z,29.37
2018-08-05T12:05:28.731Z,29.88
2018-08-05T12:07:58.500Z,30.48
2018-08-05T12:10:27.774Z,30.20
2018-08-05T12:12:57.241Z,30.04
2018-08-05T12:15:26.557Z,30.12
2018-08-05T12:17:55.949Z,30.69
2018-08-05T12:20:25.301Z,30.70
2018-08-05T12:22:54.632Z,30.23
2018-08-05T12:25:24.020Z,29.82
2018-08-05T12:27:53.266Z,30.01
2018-08-05T12:30:23.070Z,30.18
2018-08-05T12:32:52.486Z,30.61
2018-08-05T12:35:21.923Z,30.25
2018-08-05T12:37:51.250Z,29.74
2018-08-05T12:40:20.513Z,29.14
2018-08-05T12:42:49.813Z,28.67
2018-08-05T12:45:19.288Z,28.10
2018-08-05T12:47:48.567Z,28.60
2018-08-05T12:50:17.928Z,28.96
2018-08-05T12:52:47.480Z,29.44
2018-08-05T12:55:16.760Z,29.47
2018-08-05T12:57:46.129Z,29.36
2018-08-05T13:00:15.485Z,29.50
2018-08-05T13:02:44.997Z,29.40
2018-08-05T13:05:14.366Z,29.23
2018-08-05T13:07:43.780Z,29.16
2018-08-05T13:10:13.050Z,28.78
2018-08-05T13:12:51.491Z,28.50
2018-08-05T13:15:27.630Z,28.04
2018-08-05T13:17:58.316Z,27.63
2018-08-05T13:20:27.606Z,27.42
2018-08-05T13:22:56.910Z,28.02
2018-08-05T13:25:27.924Z,28.79
2018-08-05T13:27:57.419Z,28.99
2018-08-05T13:30:26.687Z,29.53
2018-08-05T13:32:56.343Z,29.63
2018-08-05T13:35:25.627Z,30.11
2018-08-05T13:37:54.624Z,30.57
2018-08-05T13:40:23.929Z,30.21
2018-08-05T13:42:53.228Z,29.92
2018-08-05T13:45:22.560Z,29.81
2018-08-05T13:47:51.867Z,29.66
2018-08-05T13:50:21.322Z,29.22
2018-08-05T13:52:50.608Z,28.48
2018-08-05T13:55:20.563Z,28.05
2018-08-05T13:57:49.904Z,27.76
2018-08-05T14:00:19.226Z,28.24
2018-08-05T14:02:48.750Z,28.20
2018-08-05T14:05:18.148Z,27.63
2018-08-05T14:07:47.430Z,27.38
2018-08-05T14:10:16.791Z,27.76
2018-08-05T14:12:46.097Z,27.68
2018-08-05T14:15:15.491Z,28.12
2018-08-05T14:17:44.914Z,28.19
2018-08-05T14:20:14.262Z,28.32
2018-08-05T14:22:43.792Z,28.24
2018-08-05T14:25:13.177Z,28.42
2018-08-05T14:27:42.492Z,28.49
2018-08-05T14:30:11.872Z,28.41
2018-08-05T14:32:41.278Z,29.06
2018-08-05T14:35:10.636Z,28.76
2018-08-05T14:37:40.274Z,29.20
2018-08-05T14:40:10.038Z,28.95
2018-08-05T14:42:39.526Z,29.11
2018-08-05T14:45:08.982Z,29.42
2018-08-05T14:47:38.558Z,29.10
2018-08-05T14:50:07.875Z,28.88
2018-08-05T14:52:37.219Z,27.77
2018-08-05T14:55:06.587Z,27.46
2018-08-05T14:57:35.969Z,27.39
2018-08-05T15:00:07.180Z,27.22
2018-08-05T15:02:36.599Z,27.63
2018-08-05T15:05:06.344Z,27.90
2018-08-05T15:07:35.751Z,28.35
2018-08-05T15:10:05.038Z,28.29
2018-08-05T15:12:34.401Z,28.12
2018-08-05T15:15:03.897Z,28.23
2018-08-05T15:17:33.507Z,28.36
2018-08-05T15:20:02.820Z,28.16
2018-08-05T15:22:32.154Z,28.75
2018-08-05T15:25:01.616Z,28.83
2018-08-05T15:27:30.907Z,28.56
2018-08-05T15:30:00.222Z,28.77
2018-08-05T15:32:29.581Z,28.71
2018-08-05T15:34:58.901Z,28.25
2018-08-05T15:37:28.294Z,28.10
2018-08-05T15:39:57.963Z,28.34
2018-08-05T15:42:27.464Z,28.03
2018-08-05T15:44:56.798Z,27.59
2018-08-05T15:47:26.255Z,27.34
2018-08-05T15:49:55.754Z,27.36
2018-08-05T15:52:25.118Z,27.76
2018-08-05T15:54:54.534Z,27.28
2018-08-05T15:57:23.819Z,27.38
2018-08-05T15:59:53.287Z,27.59
2018-08-05T16:02:22.806Z,27.37
2018-08-05T16:04:52.186Z,27.51
2018-08-05T16:07:21.708Z,27.92
2018-08-05T16:09:51.207Z,27.65
2018-08-05T16:12:20.514Z,27.47
2018-08-05T16:14:49.876Z,27.72
2018-08-05T16:17:19.412Z,27.66
2018-08-05T16:19:48.753Z,27.71
2018-08-05T16:22:18.048Z,27.63
2018-08-05T16:24:47.407Z,27.65
2018-08-05T16:27:16.479Z,27.21
2018-08-05T16:29:45.775Z,27.41
2018-08-05T16:32:15.344Z,27.71
2018-08-05T16:34:44.883Z,27.83
2018-08-05T16:37:14.547Z,27.49
2018-08-05T16:39:43.803Z,27.48
2018-08-05T16:42:13.414Z,27.60
2018-08-05T16:44:42.815Z,27.27
2018-08-05T16:47:12.330Z,27.22
2018-08-05T16:49:42.057Z,27.32
2018-08-05T16:52:11.375Z,27.25
2018-08-05T16:54:40.815Z,27.48
2018-08-05T16:57:10.261Z,27.29
2018-08-05T16:59:39.698Z,27.08
2018-08-05T17:02:09.123Z,27.03
2018-08-05T17:04:38.615Z,26.83
2018-08-05T17:07:07.914Z,26.91
2018-08-05T17:09:37.312Z,26.92
2018-08-05T17:12:06.771Z,26.74
2018-08-05T17:14:36.233Z,26.75
2018-08-05T17:17:05.925Z,26.73
2018-08-05T17:19:35.190Z,26.34
2018-08-05T17:22:04.611Z,26.73
2018-08-05T17:24:34.038Z,26.73
2018-08-05T17:27:03.501Z,26.75
2018-08-05T17:29:33.077Z,27.04
2018-08-05T17:32:02.438Z,26.53
2018-08-05T17:34:31.767Z,26.65
2018-08-05T17:37:01.130Z,26.51
2018-08-05T17:39:30.514Z,26.14
2018-08-05T17:42:00.124Z,26.33
2018-08-05T17:44:29.635Z,26.32
2018-08-05T17:46:59.178Z,26.44
2018-08-05T17:49:28.373Z,26.65
2018-08-05T17:51:58.198Z,26.53
2018-08-05T17:54:27.607Z,26.53
2018-08-05T17:56:57.053Z,26.36
2018-08-05T17:59:26.715Z,26.42
2018-08-05T18:01:56.261Z,26.61
2018-08-05T18:04:25.655Z,26.56
2018-08-05T18:06:55.248Z,26.52
2018-08-05T18:09:24.610Z,26.45
2018-08-05T18:11:53.933Z,26.34
2018-08-05T18:14:23.276Z,26.34
2018-08-05T18:16:52.693Z,26.11
2018-08-05T18:19:22.221Z,25.93
2018-08-05T18:21:51.839Z,25.93
2018-08-05T18:24:21.676Z,26.19
2018-08-05T18:26:50.932Z,26.07
2018-08-05T18:29:20.278Z,26.10
2018-08-05T18:31:49.606Z,26.11
2018-08-05T18:34:18.904Z,26.01
2018-08-05T18:36:48.220Z,25.80
2018-08-05T18:39:17.582Z,25.59
2018-08-05T18:41:46.924Z,25.27
2018-08-05T18:44:16.295Z,25.43
2018-08-05T18:46:46.150Z,25.66
2018-08-05T18:49:15.511Z,25.39
2018-08-05T18:51:44.866Z,25.31
2018-08-05T18:54:14.977Z,25.20
2018-08-05T18:56:44.368Z,25.27
2018-08-05T18:59:13.705Z,25.10
2018-08-05T19:01:43.108Z,25.08
2018-08-05T19:04:12.424Z,24.96
2018-08-05T19:06:41.865Z,24.84
2018-08-05T19:09:12.437Z,24.90
2018-08-05T19:11:42.269Z,24.86
2018-08-05T19:14:11.577Z,24.85
2018-08-05T19:16:41.457Z,24.88
2018-08-05T19:19:15.024Z,24.71
2018-08-05T19:21:44.386Z,24.85
2018-08-05T19:24:15.161Z,24.39
2018-08-05T19:26:45.915Z,24.29
2018-08-05T19:29:18.134Z,24.21
2018-08-05T19:31:49.308Z,24.18
2018-08-05T19:34:21.574Z,24.23
2018-08-05T19:36:52.762Z,24.25
2018-08-05T19:39:22.166Z,24.30
2018-08-05T19:41:51.765Z,23.95
2018-08-05T19:44:21.506Z,23.97
2018-08-05T19:46:50.812Z,24.09
2018-08-05T19:49:20.206Z,23.91
2018-08-05T19:51:49.566Z,23.81
2018-08-05T19:54:19.115Z,23.84
2018-08-05T19:56:48.547Z,23.96
2018-08-05T19:59:17.902Z,23.95
2018-08-05T20:01:47.486Z,23.99
2018-08-05T20:04:16.851Z,24.05
2018-08-05T20:06:46.690Z,23.95
2018-08-05T20:09:16.060Z,23.90
2018-08-05T20:11:45.383Z,23.97
2018-08-05T20:14:14.779Z,23.80
2018-08-05T20:16:44.107Z,23.73
2018-08-05T20:19:13.525Z,23.60
2018-08-05T20:21:42.979Z,23.55
2018-08-05T20:24:12.459Z,23.57
2018-08-05T20:26:41.758Z,23.34
2018-08-05T20:29:11.499Z,23.31
2018-08-05T20:31:41.563Z,23.34
2018-08-05T20:34:11.021Z,23.37
2018-08-05T20:36:40.399Z,23.52
2018-08-05T20:39:13.119Z,23.36
2018-08-05T20:41:43.245Z,23.27
2018-08-05T20:44:13.169Z,23.34
2018-08-05T20:46:42.536Z,23.35
2018-08-05T20:49:12.402Z,23.05
2018-08-05T20:51:41.737Z,23.13
2018-08-05T20:54:11.074Z,23.21
2018-08-05T20:56:40.702Z,23.19
2018-08-05T20:59:10.092Z,23.25
2018-08-05T21:01:39.996Z,23.25
2018-08-05T21:04:10.050Z,23.25
2018-08-05T21:06:39.132Z,23.24
2018-08-05T21:09:10.982Z,22.96
2018-08-05T21:11:40.452Z,23.01
2018-08-05T21:14:10.010Z,23.18
2018-08-05T21:16:40.288Z,23.12
2018-08-05T21:19:09.593Z,22.92
2018-08-05T21:21:38.969Z,23.02
2018-08-05T21:24:08.296Z,22.99
2018-08-05T21:26:37.642Z,23.14
2018-08-05T21:29:06.896Z,23.01
2018-08-05T21:31:36.936Z,22.76
2018-08-05T21:34:06.419Z,22.79
2018-08-05T21:36:35.753Z,22.85
2018-08-05T21:39:07.378Z,22.66
2018-08-05T21:41:36.759Z,22.41
2018-08-05T21:44:06.263Z,22.44
2018-08-05T21:46:35.583Z,22.43
2018-08-05T21:49:04.876Z,22.21
2018-08-05T21:51:34.206Z,22.33
2018-08-05T21:54:03.999Z,22.24
2018-08-05T21:56:33.595Z,22.32
2018-08-05T21:59:02.978Z,22.20
2018-08-05T22:01:32.277Z,22.01
2018-08-05T22:04:01.903Z,21.91
2018-08-05T22:06:31.446Z,21.93
2018-08-05T22:09:00.759Z,21.92
2018-08-05T22:11:30.042Z,21.80
2018-08-05T22:13:59.418Z,21.70
2018-08-05T22:16:28.970Z,21.71
2018-08-05T22:18:58.278Z,21.72
2018-08-05T22:21:27.579Z,21.52
2018-08-05T22:23:56.924Z,21.45
2018-08-05T22:26:26.431Z,21.48
2018-08-05T22:28:55.674Z,21.32
2018-08-05T22:31:25.028Z,21.32
2018-08-05T22:33:54.371Z,21.23
2018-08-05T22:36:23.899Z,21.30
2018-08-05T22:38:53.346Z,21.31
2018-08-05T22:41:23.191Z,21.27
2018-08-05T22:43:52.552Z,21.31
2018-08-05T22:46:21.865Z,21.31
2018-08-05T22:48:51.206Z,21.30
2018-08-05T22:51:20.466Z,21.09
2018-08-05T22:53:49.778Z,21.09
2018-08-05T22:56:19.195Z,21.13
2018-08-05T22:58:48.546Z,20.95
2018-08-05T23:01:17.983Z,21.03
2018-08-05T23:03:47.268Z,20.92
2018-08-05T23:06:16.610Z,20.96
2018-08-05T23:08:45.933Z,20.75
2018-08-05T23:11:15.202Z,20.79
2018-08-05T23:13:44.464Z,20.94
2018-08-05T23:16:13.825Z,20.68
2018-08-05T23:18:43.113Z,20.49
2018-08-05T23:21:12.454Z,20.79
2018-08-05T23:23:42.221Z,20.61
2018-08-05T23:26:11.507Z,20.63
2018-08-05T23:28:40.795Z,20.84
2018-08-05T23:31:10.155Z,20.55
2018-08-05T23:33:39.435Z,20.72
2018-08-05T23:36:08.812Z,20.57
2018-08-05T23:38:38.469Z,20.62
2018-08-05T23:41:07.797Z,20.33
2018-08-05T23:43:37.162Z,20.23
2018-08-05T23:46:06.980Z,20.36
2018-08-05T23:48:36.256Z,20.49
2018-08-05T23:51:05.572Z,20.38
2018-08-05T23:53:34.832Z,20.40
2018-08-05T23:56:04.178Z,20.44
2018-08-05T23:58:33.510Z,20.45
